sensor_id;sensor_type;location;lat;lon;timestamp;temperature;humidity
71142;DHT22;58808;59.366;17.970;2023-06-22T00:00:58;19.90;99.90
71142;DHT22;58808;59.366;17.970;2023-06-22T00:03:25;19.90;99.90
71142;DHT22;58808;59.366;17.970;2023-06-22T00:05:51;19.80;99.90
71142;DHT22;58808;59.366;17.970;2023-06-22T00:08:18;19.90;99.90
71142;DHT22;58808;59.366;17.970;2023-06-22T00:10:46;19.90;99.90
71142;DHT22;58808;59.366;17.970;2023-06-22T00:13:12;19.90;99.90
71142;DHT22;58808;59.366;17.970;2023-06-22T00:15:40;19.90;99.90
71142;DHT22;58808;59.366;17.970;2023-06-22T00:18:06;19.80;99.90
71142;DHT22;58808;59.366;17.970;2023-06-22T00:20:33;19.80;99.90
71142;DHT22;58808;59.366;17.970;2023-06-22T00:23:03;19.90;99.90
71142;DHT22;58808;59.366;17.970;2023-06-22T00:25:36;19.90;99.90
71142;DHT22;58808;59.366;17.970;2023-06-22T00:28:03;19.90;99.90
71142;DHT22;58808;59.366;17.970;2023-06-22T00:30:30;19.90;99.90
71142;DHT22;58808;59.366;17.970;2023-06-22T00:32:55;19.90;99.90
71142;DHT22;58808;59.366;17.970;2023-06-22T00:35:21;19.90;99.90
71142;DHT22;58808;59.366;17.970;2023-06-22T00:37:47;19.80;99.90
71142;DHT22;58808;59.366;17.970;2023-06-22T00:40:13;19.80;99.90
71142;DHT22;58808;59.366;17.970;2023-06-22T00:42:40;19.80;99.90
71142;DHT22;58808;59.366;17.970;2023-06-22T00:45:06;19.80;99.90
71142;DHT22;58808;59.366;17.970;2023-06-22T00:47:34;19.70;99.90
71142;DHT22;58808;59.366;17.970;2023-06-22T00:50:00;19.70;99.90
71142;DHT22;58808;59.366;17.970;2023-06-22T00:52:26;19.70;99.90
71142;DHT22;58808;59.366;17.970;2023-06-22T00:54:56;19.70;99.90
71142;DHT22;58808;59.366;17.970;2023-06-22T00:57:24;19.80;99.90
71142;DHT22;58808;59.366;17.970;2023-06-22T00:59:54;19.80;99.90
71142;DHT22;58808;59.366;17.970;2023-06-22T01:02:20;19.80;99.90
71142;DHT22;58808;59.366;17.970;2023-06-22T01:04:46;19.80;99.90
71142;DHT22;58808;59.366;17.970;2023-06-22T01:07:35;19.80;99.90
71142;DHT22;58808;59.366;17.970;2023-06-22T01:12:52;19.80;99.90
71142;DHT22;58808;59.366;17.970;2023-06-22T01:15:28;19.70;99.90
71142;DHT22;58808;59.366;17.970;2023-06-22T01:17:56;19.70;99.90
71142;DHT22;58808;59.366;17.970;2023-06-22T01:20:25;19.70;99.90
71142;DHT22;58808;59.366;17.970;2023-06-22T01:31:02;19.70;99.90
71142;DHT22;58808;59.366;17.970;2023-06-22T01:33:36;19.70;99.90
71142;DHT22;58808;59.366;17.970;2023-06-22T01:36:03;19.70;99.90
71142;DHT22;58808;59.366;17.970;2023-06-22T01:38:30;19.70;99.90
71142;DHT22;58808;59.366;17.970;2023-06-22T01:40:58;19.70;99.90
71142;DHT22;58808;59.366;17.970;2023-06-22T01:43:28;19.70;99.90
71142;DHT22;58808;59.366;17.970;2023-06-22T01:45:55;19.70;99.90
71142;DHT22;58808;59.366;17.970;2023-06-22T01:48:22;19.70;99.90
71142;DHT22;58808;59.366;17.970;2023-06-22T01:50:49;19.70;99.90
71142;DHT22;58808;59.366;17.970;2023-06-22T01:53:14;19.70;99.90
71142;DHT22;58808;59.366;17.970;2023-06-22T01:55:40;19.70;99.90
71142;DHT22;58808;59.366;17.970;2023-06-22T01:58:06;19.60;99.90
71142;DHT22;58808;59.366;17.970;2023-06-22T02:00:34;19.60;99.90
71142;DHT22;58808;59.366;17.970;2023-06-22T02:03:16;19.60;99.90
71142;DHT22;58808;59.366;17.970;2023-06-22T02:05:54;19.60;99.90
71142;DHT22;58808;59.366;17.970;2023-06-22T02:08:29;19.60;99.90
71142;DHT22;58808;59.366;17.970;2023-06-22T02:10:57;19.60;99.90
71142;DHT22;58808;59.366;17.970;2023-06-22T02:13:25;19.70;99.90
71142;DHT22;58808;59.366;17.970;2023-06-22T02:15:51;19.60;99.90
71142;DHT22;58808;59.366;17.970;2023-06-22T02:18:17;19.60;99.90
71142;DHT22;58808;59.366;17.970;2023-06-22T02:20:43;19.60;99.90
71142;DHT22;58808;59.366;17.970;2023-06-22T02:23:09;19.60;99.90
71142;DHT22;58808;59.366;17.970;2023-06-22T02:25:35;19.50;99.90
71142;DHT22;58808;59.366;17.970;2023-06-22T02:28:01;19.50;99.90
71142;DHT22;58808;59.366;17.970;2023-06-22T02:30:27;19.50;99.90
71142;DHT22;58808;59.366;17.970;2023-06-22T02:32:53;19.50;99.90
71142;DHT22;58808;59.366;17.970;2023-06-22T02:35:28;19.50;99.90
71142;DHT22;58808;59.366;17.970;2023-06-22T02:38:01;19.50;99.90
71142;DHT22;58808;59.366;17.970;2023-06-22T02:40:28;19.50;99.90
71142;DHT22;58808;59.366;17.970;2023-06-22T02:42:54;19.50;99.90
71142;DHT22;58808;59.366;17.970;2023-06-22T02:45:20;19.50;99.90
71142;DHT22;58808;59.366;17.970;2023-06-22T02:47:46;19.50;99.90
71142;DHT22;58808;59.366;17.970;2023-06-22T02:50:13;19.50;99.90
71142;DHT22;58808;59.366;17.970;2023-06-22T02:52:39;19.50;99.90
71142;DHT22;58808;59.366;17.970;2023-06-22T02:55:06;19.50;99.90
71142;DHT22;58808;59.366;17.970;2023-06-22T02:57:32;19.50;99.90
71142;DHT22;58808;59.366;17.970;2023-06-22T02:59:59;19.40;99.90
71142;DHT22;58808;59.366;17.970;2023-06-22T03:02:25;19.40;99.90
71142;DHT22;58808;59.366;17.970;2023-06-22T03:04:52;19.40;99.90
71142;DHT22;58808;59.366;17.970;2023-06-22T03:07:20;19.40;99.90
71142;DHT22;58808;59.366;17.970;2023-06-22T03:09:46;19.40;99.90
71142;DHT22;58808;59.366;17.970;2023-06-22T03:12:11;19.40;99.90
71142;DHT22;58808;59.366;17.970;2023-06-22T03:14:37;19.40;99.90
71142;DHT22;58808;59.366;17.970;2023-06-22T03:17:04;19.40;99.90
71142;DHT22;58808;59.366;17.970;2023-06-22T03:19:30;19.40;99.90
71142;DHT22;58808;59.366;17.970;2023-06-22T03:22:00;19.40;99.90
71142;DHT22;58808;59.366;17.970;2023-06-22T03:24:26;19.40;99.90
71142;DHT22;58808;59.366;17.970;2023-06-22T03:26:54;19.50;99.90
71142;DHT22;58808;59.366;17.970;2023-06-22T03:29:20;19.50;99.90
71142;DHT22;58808;59.366;17.970;2023-06-22T03:31:46;19.50;99.90
71142;DHT22;58808;59.366;17.970;2023-06-22T03:34:11;19.40;99.90
71142;DHT22;58808;59.366;17.970;2023-06-22T03:36:37;19.40;99.90
71142;DHT22;58808;59.366;17.970;2023-06-22T03:39:03;19.40;99.90
71142;DHT22;58808;59.366;17.970;2023-06-22T03:41:29;19.40;99.90
71142;DHT22;58808;59.366;17.970;2023-06-22T03:43:54;19.40;99.90
71142;DHT22;58808;59.366;17.970;2023-06-22T03:46:20;19.50;99.90
71142;DHT22;58808;59.366;17.970;2023-06-22T03:48:46;19.50;99.90
71142;DHT22;58808;59.366;17.970;2023-06-22T03:51:11;19.50;99.90
71142;DHT22;58808;59.366;17.970;2023-06-22T03:53:37;19.40;99.90
71142;DHT22;58808;59.366;17.970;2023-06-22T03:56:03;19.50;99.90
71142;DHT22;58808;59.366;17.970;2023-06-22T03:58:29;19.50;99.90
71142;DHT22;58808;59.366;17.970;2023-06-22T04:00:58;19.50;99.90
71142;DHT22;58808;59.366;17.970;2023-06-22T04:03:25;19.50;99.90
71142;DHT22;58808;59.366;17.970;2023-06-22T04:05:51;19.50;99.90
71142;DHT22;58808;59.366;17.970;2023-06-22T04:08:17;19.60;99.90
71142;DHT22;58808;59.366;17.970;2023-06-22T04:10:43;19.70;99.90
71142;DHT22;58808;59.366;17.970;2023-06-22T04:13:09;19.70;99.90
71142;DHT22;58808;59.366;17.970;2023-06-22T04:15:35;19.60;99.90
71142;DHT22;58808;59.366;17.970;2023-06-22T04:18:00;19.60;99.90
71142;DHT22;58808;59.366;17.970;2023-06-22T04:20:26;19.60;99.90
71142;DHT22;58808;59.366;17.970;2023-06-22T04:22:55;19.60;99.90
71142;DHT22;58808;59.366;17.970;2023-06-22T04:25:21;19.60;99.90
71142;DHT22;58808;59.366;17.970;2023-06-22T04:27:47;19.60;99.90
71142;DHT22;58808;59.366;17.970;2023-06-22T04:30:14;19.60;99.90
71142;DHT22;58808;59.366;17.970;2023-06-22T04:32:43;19.60;99.90
71142;DHT22;58808;59.366;17.970;2023-06-22T04:35:10;19.60;99.90
71142;DHT22;58808;59.366;17.970;2023-06-22T04:37:37;19.50;99.90
71142;DHT22;58808;59.366;17.970;2023-06-22T04:40:05;19.50;99.90
71142;DHT22;58808;59.366;17.970;2023-06-22T04:42:31;19.50;99.90
71142;DHT22;58808;59.366;17.970;2023-06-22T04:44:57;19.50;99.90
71142;DHT22;58808;59.366;17.970;2023-06-22T04:47:23;19.60;99.90
71142;DHT22;58808;59.366;17.970;2023-06-22T04:49:48;19.60;99.90
71142;DHT22;58808;59.366;17.970;2023-06-22T04:52:14;19.60;99.90
71142;DHT22;58808;59.366;17.970;2023-06-22T04:54:43;19.70;99.90
71142;DHT22;58808;59.366;17.970;2023-06-22T04:57:16;19.70;99.90
71142;DHT22;58808;59.366;17.970;2023-06-22T04:59:42;19.70;99.90
71142;DHT22;58808;59.366;17.970;2023-06-22T05:02:08;19.70;99.90
71142;DHT22;58808;59.366;17.970;2023-06-22T05:04:34;19.80;99.90
71142;DHT22;58808;59.366;17.970;2023-06-22T05:07:06;19.80;99.90
71142;DHT22;58808;59.366;17.970;2023-06-22T05:09:32;19.90;99.90
71142;DHT22;58808;59.366;17.970;2023-06-22T05:11:59;19.80;99.90
71142;DHT22;58808;59.366;17.970;2023-06-22T05:14:27;19.80;99.90
71142;DHT22;58808;59.366;17.970;2023-06-22T05:16:53;19.80;99.90
71142;DHT22;58808;59.366;17.970;2023-06-22T05:19:19;19.90;99.90
71142;DHT22;58808;59.366;17.970;2023-06-22T05:21:45;19.90;99.90
71142;DHT22;58808;59.366;17.970;2023-06-22T05:24:11;19.90;99.90
71142;DHT22;58808;59.366;17.970;2023-06-22T05:26:37;20.00;99.90
71142;DHT22;58808;59.366;17.970;2023-06-22T05:29:03;19.90;99.90
71142;DHT22;58808;59.366;17.970;2023-06-22T05:31:29;19.90;99.90
71142;DHT22;58808;59.366;17.970;2023-06-22T05:33:55;20.00;99.90
71142;DHT22;58808;59.366;17.970;2023-06-22T05:36:22;20.00;99.90
71142;DHT22;58808;59.366;17.970;2023-06-22T05:38:56;20.00;99.90
71142;DHT22;58808;59.366;17.970;2023-06-22T05:41:23;20.00;99.90
71142;DHT22;58808;59.366;17.970;2023-06-22T05:43:48;20.00;99.90
71142;DHT22;58808;59.366;17.970;2023-06-22T05:46:14;20.00;99.90
71142;DHT22;58808;59.366;17.970;2023-06-22T05:48:40;20.00;99.90
71142;DHT22;58808;59.366;17.970;2023-06-22T05:51:05;20.00;99.90
71142;DHT22;58808;59.366;17.970;2023-06-22T05:53:31;20.00;99.90
71142;DHT22;58808;59.366;17.970;2023-06-22T05:55:57;20.10;99.90
71142;DHT22;58808;59.366;17.970;2023-06-22T05:58:22;20.20;99.90
71142;DHT22;58808;59.366;17.970;2023-06-22T06:00:48;20.20;99.90
71142;DHT22;58808;59.366;17.970;2023-06-22T06:03:14;20.20;99.90
71142;DHT22;58808;59.366;17.970;2023-06-22T06:05:42;20.20;99.90
71142;DHT22;58808;59.366;17.970;2023-06-22T06:08:09;20.10;99.90
71142;DHT22;58808;59.366;17.970;2023-06-22T06:10:36;19.90;99.90
71142;DHT22;58808;59.366;17.970;2023-06-22T06:13:02;19.80;99.90
71142;DHT22;58808;59.366;17.970;2023-06-22T06:15:30;19.70;99.90
71142;DHT22;58808;59.366;17.970;2023-06-22T06:17:56;19.70;99.90
71142;DHT22;58808;59.366;17.970;2023-06-22T06:20:23;19.70;99.90
71142;DHT22;58808;59.366;17.970;2023-06-22T06:22:50;19.70;99.90
71142;DHT22;58808;59.366;17.970;2023-06-22T06:25:16;19.60;99.90
71142;DHT22;58808;59.366;17.970;2023-06-22T06:27:43;19.60;99.90
71142;DHT22;58808;59.366;17.970;2023-06-22T06:30:10;19.50;99.90
71142;DHT22;58808;59.366;17.970;2023-06-22T06:32:36;19.50;99.90
71142;DHT22;58808;59.366;17.970;2023-06-22T06:35:04;19.50;99.90
71142;DHT22;58808;59.366;17.970;2023-06-22T06:37:30;19.60;99.90
71142;DHT22;58808;59.366;17.970;2023-06-22T06:39:56;19.60;99.90
71142;DHT22;58808;59.366;17.970;2023-06-22T06:42:22;19.60;99.90
71142;DHT22;58808;59.366;17.970;2023-06-22T06:44:49;19.60;99.90
71142;DHT22;58808;59.366;17.970;2023-06-22T06:47:15;19.60;99.90
71142;DHT22;58808;59.366;17.970;2023-06-22T06:49:42;19.70;99.90
71142;DHT22;58808;59.366;17.970;2023-06-22T06:52:08;19.80;99.90
71142;DHT22;58808;59.366;17.970;2023-06-22T06:54:34;19.80;99.90
71142;DHT22;58808;59.366;17.970;2023-06-22T06:56:59;19.90;99.90
71142;DHT22;58808;59.366;17.970;2023-06-22T06:59:25;20.00;99.90
71142;DHT22;58808;59.366;17.970;2023-06-22T07:01:51;20.00;99.90
71142;DHT22;58808;59.366;17.970;2023-06-22T07:04:16;20.10;99.90
71142;DHT22;58808;59.366;17.970;2023-06-22T07:06:42;20.20;99.90
71142;DHT22;58808;59.366;17.970;2023-06-22T07:09:08;20.20;99.90
71142;DHT22;58808;59.366;17.970;2023-06-22T07:11:34;20.10;99.90
71142;DHT22;58808;59.366;17.970;2023-06-22T07:14:01;20.10;99.90
71142;DHT22;58808;59.366;17.970;2023-06-22T07:16:26;20.00;99.90
71142;DHT22;58808;59.366;17.970;2023-06-22T07:18:54;20.00;99.90
71142;DHT22;58808;59.366;17.970;2023-06-22T07:21:19;19.90;99.90
71142;DHT22;58808;59.366;17.970;2023-06-22T07:23:45;19.80;99.90
71142;DHT22;58808;59.366;17.970;2023-06-22T07:26:11;19.80;99.90
71142;DHT22;58808;59.366;17.970;2023-06-22T07:28:38;19.80;99.90
71142;DHT22;58808;59.366;17.970;2023-06-22T07:31:06;19.80;99.90
71142;DHT22;58808;59.366;17.970;2023-06-22T07:33:32;19.80;99.90
71142;DHT22;58808;59.366;17.970;2023-06-22T07:35:57;19.80;99.90
71142;DHT22;58808;59.366;17.970;2023-06-22T07:38:23;19.70;99.90
71142;DHT22;58808;59.366;17.970;2023-06-22T07:40:49;19.70;99.90
71142;DHT22;58808;59.366;17.970;2023-06-22T07:43:16;19.70;99.90
71142;DHT22;58808;59.366;17.970;2023-06-22T07:45:50;19.70;99.90
71142;DHT22;58808;59.366;17.970;2023-06-22T07:48:23;19.70;99.90
71142;DHT22;58808;59.366;17.970;2023-06-22T07:50:49;19.60;99.90
71142;DHT22;58808;59.366;17.970;2023-06-22T07:53:15;19.60;99.90
71142;DHT22;58808;59.366;17.970;2023-06-22T07:55:40;19.60;99.90
71142;DHT22;58808;59.366;17.970;2023-06-22T07:58:06;19.70;99.90
71142;DHT22;58808;59.366;17.970;2023-06-22T08:00:33;19.70;99.90
71142;DHT22;58808;59.366;17.970;2023-06-22T08:02:59;19.80;99.90
71142;DHT22;58808;59.366;17.970;2023-06-22T08:05:25;19.90;99.90
71142;DHT22;58808;59.366;17.970;2023-06-22T08:07:51;20.10;99.90
71142;DHT22;58808;59.366;17.970;2023-06-22T08:10:18;20.30;99.90
71142;DHT22;58808;59.366;17.970;2023-06-22T08:12:44;20.60;99.90
71142;DHT22;58808;59.366;17.970;2023-06-22T08:15:10;20.80;99.90
71142;DHT22;58808;59.366;17.970;2023-06-22T08:17:39;20.90;99.90
71142;DHT22;58808;59.366;17.970;2023-06-22T08:20:06;20.80;99.90
71142;DHT22;58808;59.366;17.970;2023-06-22T08:22:36;20.90;99.90
71142;DHT22;58808;59.366;17.970;2023-06-22T08:25:03;21.00;99.90
71142;DHT22;58808;59.366;17.970;2023-06-22T08:27:30;21.00;99.90
71142;DHT22;58808;59.366;17.970;2023-06-22T08:30:00;21.10;99.90
71142;DHT22;58808;59.366;17.970;2023-06-22T08:32:27;21.10;99.90
71142;DHT22;58808;59.366;17.970;2023-06-22T08:34:57;21.00;99.90
71142;DHT22;58808;59.366;17.970;2023-06-22T08:37:23;21.00;99.90
71142;DHT22;58808;59.366;17.970;2023-06-22T08:39:57;20.90;99.90
71142;DHT22;58808;59.366;17.970;2023-06-22T08:42:22;20.80;99.90
71142;DHT22;58808;59.366;17.970;2023-06-22T08:44:50;20.70;99.90
71142;DHT22;58808;59.366;17.970;2023-06-22T08:47:15;20.70;99.90
71142;DHT22;58808;59.366;17.970;2023-06-22T08:49:41;20.80;99.90
71142;DHT22;58808;59.366;17.970;2023-06-22T08:52:07;20.80;99.90
71142;DHT22;58808;59.366;17.970;2023-06-22T08:54:33;20.90;99.90
71142;DHT22;58808;59.366;17.970;2023-06-22T08:57:00;20.90;99.90
71142;DHT22;58808;59.366;17.970;2023-06-22T08:59:26;21.00;99.90
71142;DHT22;58808;59.366;17.970;2023-06-22T09:01:52;21.00;99.90
71142;DHT22;58808;59.366;17.970;2023-06-22T09:04:17;21.10;99.90
71142;DHT22;58808;59.366;17.970;2023-06-22T09:06:43;21.20;99.90
71142;DHT22;58808;59.366;17.970;2023-06-22T09:09:11;21.50;99.90
71142;DHT22;58808;59.366;17.970;2023-06-22T09:11:37;21.50;99.90
71142;DHT22;58808;59.366;17.970;2023-06-22T09:14:03;21.60;99.90
71142;DHT22;58808;59.366;17.970;2023-06-22T09:16:29;21.70;99.90
71142;DHT22;58808;59.366;17.970;2023-06-22T09:18:55;21.90;99.90
71142;DHT22;58808;59.366;17.970;2023-06-22T09:21:21;22.00;99.90
71142;DHT22;58808;59.366;17.970;2023-06-22T09:23:47;22.00;99.90
71142;DHT22;58808;59.366;17.970;2023-06-22T09:26:17;22.20;99.90
71142;DHT22;58808;59.366;17.970;2023-06-22T09:28:43;22.20;99.90
71142;DHT22;58808;59.366;17.970;2023-06-22T09:31:08;22.20;99.90
71142;DHT22;58808;59.366;17.970;2023-06-22T09:33:35;22.30;99.90
71142;DHT22;58808;59.366;17.970;2023-06-22T09:36:01;22.50;99.90
71142;DHT22;58808;59.366;17.970;2023-06-22T09:38:27;22.50;99.90
71142;DHT22;58808;59.366;17.970;2023-06-22T09:40:52;22.60;99.90
71142;DHT22;58808;59.366;17.970;2023-06-22T09:43:18;22.60;99.90
71142;DHT22;58808;59.366;17.970;2023-06-22T09:45:44;22.60;99.90
71142;DHT22;58808;59.366;17.970;2023-06-22T09:48:09;22.80;99.90
71142;DHT22;58808;59.366;17.970;2023-06-22T09:50:35;22.80;99.90
71142;DHT22;58808;59.366;17.970;2023-06-22T09:53:02;22.70;99.90
71142;DHT22;58808;59.366;17.970;2023-06-22T09:55:28;22.70;99.90
71142;DHT22;58808;59.366;17.970;2023-06-22T09:57:54;22.70;99.90
71142;DHT22;58808;59.366;17.970;2023-06-22T10:00:21;22.80;99.90
71142;DHT22;58808;59.366;17.970;2023-06-22T10:02:47;22.80;99.90
71142;DHT22;58808;59.366;17.970;2023-06-22T10:05:13;22.90;99.90
71142;DHT22;58808;59.366;17.970;2023-06-22T10:07:39;22.80;99.90
71142;DHT22;58808;59.366;17.970;2023-06-22T10:10:08;22.80;99.90
71142;DHT22;58808;59.366;17.970;2023-06-22T10:12:34;23.00;99.90
71142;DHT22;58808;59.366;17.970;2023-06-22T10:15:00;23.20;99.90
71142;DHT22;58808;59.366;17.970;2023-06-22T10:17:25;23.20;99.80
71142;DHT22;58808;59.366;17.970;2023-06-22T10:19:51;23.20;99.90
71142;DHT22;58808;59.366;17.970;2023-06-22T10:22:17;23.50;99.30
71142;DHT22;58808;59.366;17.970;2023-06-22T10:24:43;23.60;98.40
71142;DHT22;58808;59.366;17.970;2023-06-22T10:27:11;23.70;97.40
71142;DHT22;58808;59.366;17.970;2023-06-22T10:29:37;23.80;96.80
71142;DHT22;58808;59.366;17.970;2023-06-22T10:32:03;23.80;96.60
71142;DHT22;58808;59.366;17.970;2023-06-22T10:34:29;23.90;95.40
71142;DHT22;58808;59.366;17.970;2023-06-22T10:36:54;23.70;95.10
71142;DHT22;58808;59.366;17.970;2023-06-22T10:39:20;23.50;95.30
71142;DHT22;58808;59.366;17.970;2023-06-22T10:41:46;23.40;95.90
71142;DHT22;58808;59.366;17.970;2023-06-22T10:44:12;23.40;94.50
71142;DHT22;58808;59.366;17.970;2023-06-22T10:46:39;23.50;95.20
71142;DHT22;58808;59.366;17.970;2023-06-22T10:49:04;23.80;95.50
71142;DHT22;58808;59.366;17.970;2023-06-22T10:51:30;24.10;93.60
71142;DHT22;58808;59.366;17.970;2023-06-22T10:53:57;24.00;93.60
71142;DHT22;58808;59.366;17.970;2023-06-22T10:56:23;24.10;92.50
71142;DHT22;58808;59.366;17.970;2023-06-22T10:58:49;24.10;91.90
71142;DHT22;58808;59.366;17.970;2023-06-22T11:01:15;24.20;91.80
71142;DHT22;58808;59.366;17.970;2023-06-22T11:03:41;24.30;90.70
71142;DHT22;58808;59.366;17.970;2023-06-22T11:06:06;24.30;90.20
71142;DHT22;58808;59.366;17.970;2023-06-22T11:08:32;24.40;88.80
71142;DHT22;58808;59.366;17.970;2023-06-22T11:10:58;24.40;88.50
71142;DHT22;58808;59.366;17.970;2023-06-22T11:13:23;24.70;88.70
71142;DHT22;58808;59.366;17.970;2023-06-22T11:15:50;25.00;86.80
71142;DHT22;58808;59.366;17.970;2023-06-22T11:18:16;24.80;83.90
71142;DHT22;58808;59.366;17.970;2023-06-22T11:20:42;24.90;83.90
71142;DHT22;58808;59.366;17.970;2023-06-22T11:23:09;25.00;83.00
71142;DHT22;58808;59.366;17.970;2023-06-22T11:25:37;25.00;83.00
71142;DHT22;58808;59.366;17.970;2023-06-22T11:28:04;25.10;81.60
71142;DHT22;58808;59.366;17.970;2023-06-22T11:30:30;25.10;80.20
71142;DHT22;58808;59.366;17.970;2023-06-22T11:32:59;25.00;80.00
71142;DHT22;58808;59.366;17.970;2023-06-22T11:35:25;25.00;77.40
71142;DHT22;58808;59.366;17.970;2023-06-22T11:37:51;25.20;78.70
71142;DHT22;58808;59.366;17.970;2023-06-22T11:40:17;25.10;77.20
71142;DHT22;58808;59.366;17.970;2023-06-22T11:42:43;25.20;78.70
71142;DHT22;58808;59.366;17.970;2023-06-22T11:45:09;25.40;77.10
71142;DHT22;58808;59.366;17.970;2023-06-22T11:47:35;25.50;75.00
71142;DHT22;58808;59.366;17.970;2023-06-22T11:50:02;25.50;75.20
71142;DHT22;58808;59.366;17.970;2023-06-22T11:52:28;25.50;74.70
71142;DHT22;58808;59.366;17.970;2023-06-22T11:54:54;25.50;76.80
71142;DHT22;58808;59.366;17.970;2023-06-22T11:57:20;25.60;78.30
71142;DHT22;58808;59.366;17.970;2023-06-22T11:59:45;25.60;73.30
71142;DHT22;58808;59.366;17.970;2023-06-22T12:02:11;25.70;75.70
71142;DHT22;58808;59.366;17.970;2023-06-22T12:04:37;25.90;74.50
71142;DHT22;58808;59.366;17.970;2023-06-22T12:07:03;26.00;72.00
71142;DHT22;58808;59.366;17.970;2023-06-22T12:09:29;25.80;72.30
71142;DHT22;58808;59.366;17.970;2023-06-22T12:11:54;25.60;73.70
71142;DHT22;58808;59.366;17.970;2023-06-22T12:14:20;25.40;74.60
71142;DHT22;58808;59.366;17.970;2023-06-22T12:16:46;25.20;75.70
71142;DHT22;58808;59.366;17.970;2023-06-22T12:19:11;25.30;77.00
71142;DHT22;58808;59.366;17.970;2023-06-22T12:21:37;25.50;76.10
71142;DHT22;58808;59.366;17.970;2023-06-22T12:24:03;25.60;73.70
71142;DHT22;58808;59.366;17.970;2023-06-22T12:26:29;25.50;75.10
71142;DHT22;58808;59.366;17.970;2023-06-22T12:28:55;25.40;74.50
71142;DHT22;58808;59.366;17.970;2023-06-22T12:31:20;25.50;73.30
71142;DHT22;58808;59.366;17.970;2023-06-22T12:33:46;25.60;73.50
71142;DHT22;58808;59.366;17.970;2023-06-22T12:36:12;25.70;73.80
71142;DHT22;58808;59.366;17.970;2023-06-22T12:38:37;25.70;73.50
71142;DHT22;58808;59.366;17.970;2023-06-22T12:41:03;25.80;72.20
71142;DHT22;58808;59.366;17.970;2023-06-22T12:43:29;25.70;71.80
71142;DHT22;58808;59.366;17.970;2023-06-22T12:45:54;25.80;72.70
71142;DHT22;58808;59.366;17.970;2023-06-22T12:48:22;25.80;72.90
71142;DHT22;58808;59.366;17.970;2023-06-22T12:50:48;26.00;73.40
71142;DHT22;58808;59.366;17.970;2023-06-22T12:53:13;26.10;71.60
71142;DHT22;58808;59.366;17.970;2023-06-22T12:55:39;26.10;70.80
71142;DHT22;58808;59.366;17.970;2023-06-22T12:58:05;26.00;71.40
71142;DHT22;58808;59.366;17.970;2023-06-22T13:00:31;26.10;71.40
71142;DHT22;58808;59.366;17.970;2023-06-22T13:02:56;26.10;71.10
71142;DHT22;58808;59.366;17.970;2023-06-22T13:05:22;26.10;72.90
71142;DHT22;58808;59.366;17.970;2023-06-22T13:07:48;26.30;69.30
71142;DHT22;58808;59.366;17.970;2023-06-22T13:10:14;26.20;69.90
71142;DHT22;58808;59.366;17.970;2023-06-22T13:12:39;26.00;70.00
71142;DHT22;58808;59.366;17.970;2023-06-22T13:15:05;26.10;70.50
71142;DHT22;58808;59.366;17.970;2023-06-22T13:17:31;26.00;70.90
71142;DHT22;58808;59.366;17.970;2023-06-22T13:19:57;25.80;71.60
71142;DHT22;58808;59.366;17.970;2023-06-22T13:24:55;26.00;70.50
71142;DHT22;58808;59.366;17.970;2023-06-22T13:27:20;26.20;69.20
71142;DHT22;58808;59.366;17.970;2023-06-22T13:29:46;26.10;70.30
71142;DHT22;58808;59.366;17.970;2023-06-22T13:32:12;26.00;69.90
71142;DHT22;58808;59.366;17.970;2023-06-22T13:34:38;26.10;70.40
71142;DHT22;58808;59.366;17.970;2023-06-22T13:37:03;26.10;68.70
71142;DHT22;58808;59.366;17.970;2023-06-22T13:39:29;26.20;69.20
71142;DHT22;58808;59.366;17.970;2023-06-22T13:41:56;26.40;68.60
71142;DHT22;58808;59.366;17.970;2023-06-22T13:44:21;26.50;68.10
71142;DHT22;58808;59.366;17.970;2023-06-22T13:46:47;26.70;67.20
71142;DHT22;58808;59.366;17.970;2023-06-22T13:49:13;26.80;66.00
71142;DHT22;58808;59.366;17.970;2023-06-22T13:51:39;26.80;65.90
71142;DHT22;58808;59.366;17.970;2023-06-22T13:54:04;26.80;66.00
71142;DHT22;58808;59.366;17.970;2023-06-22T13:56:30;26.80;65.90
71142;DHT22;58808;59.366;17.970;2023-06-22T13:58:56;26.80;65.30
71142;DHT22;58808;59.366;17.970;2023-06-22T14:01:21;26.90;64.60
71142;DHT22;58808;59.366;17.970;2023-06-22T14:03:48;26.90;64.50
71142;DHT22;58808;59.366;17.970;2023-06-22T14:06:13;26.80;64.40
71142;DHT22;58808;59.366;17.970;2023-06-22T14:08:39;26.70;64.00
71142;DHT22;58808;59.366;17.970;2023-06-22T14:11:05;26.70;65.40
71142;DHT22;58808;59.366;17.970;2023-06-22T14:13:31;26.70;63.60
71142;DHT22;58808;59.366;17.970;2023-06-22T14:15:56;26.80;63.50
71142;DHT22;58808;59.366;17.970;2023-06-22T14:18:22;26.80;63.00
71142;DHT22;58808;59.366;17.970;2023-06-22T14:20:48;26.80;62.70
71142;DHT22;58808;59.366;17.970;2023-06-22T14:23:14;26.90;62.60
71142;DHT22;58808;59.366;17.970;2023-06-22T14:25:40;27.00;62.60
71142;DHT22;58808;59.366;17.970;2023-06-22T14:28:06;27.10;61.30
71142;DHT22;58808;59.366;17.970;2023-06-22T14:30:31;27.10;61.40
71142;DHT22;58808;59.366;17.970;2023-06-22T14:32:57;27.10;60.70
71142;DHT22;58808;59.366;17.970;2023-06-22T14:35:23;27.00;59.90
71142;DHT22;58808;59.366;17.970;2023-06-22T14:37:50;26.80;60.60
71142;DHT22;58808;59.366;17.970;2023-06-22T14:40:16;26.70;60.20
71142;DHT22;58808;59.366;17.970;2023-06-22T14:42:41;26.70;60.00
71142;DHT22;58808;59.366;17.970;2023-06-22T14:45:07;26.70;59.90
71142;DHT22;58808;59.366;17.970;2023-06-22T14:47:33;26.70;60.10
71142;DHT22;58808;59.366;17.970;2023-06-22T14:49:59;26.80;59.70
71142;DHT22;58808;59.366;17.970;2023-06-22T14:52:26;26.90;58.60
71142;DHT22;58808;59.366;17.970;2023-06-22T14:54:52;26.80;58.20
71142;DHT22;58808;59.366;17.970;2023-06-22T14:57:19;26.90;57.80
71142;DHT22;58808;59.366;17.970;2023-06-22T14:59:46;26.90;58.00
71142;DHT22;58808;59.366;17.970;2023-06-22T15:02:13;26.90;56.60
71142;DHT22;58808;59.366;17.970;2023-06-22T15:04:38;26.80;56.60
71142;DHT22;58808;59.366;17.970;2023-06-22T15:07:04;26.70;57.20
71142;DHT22;58808;59.366;17.970;2023-06-22T15:09:30;26.60;57.10
71142;DHT22;58808;59.366;17.970;2023-06-22T15:11:57;26.60;57.80
71142;DHT22;58808;59.366;17.970;2023-06-22T15:14:23;26.70;57.10
71142;DHT22;58808;59.366;17.970;2023-06-22T15:16:50;26.70;57.60
71142;DHT22;58808;59.366;17.970;2023-06-22T15:19:15;26.70;57.60
71142;DHT22;58808;59.366;17.970;2023-06-22T15:21:41;26.80;57.40
71142;DHT22;58808;59.366;17.970;2023-06-22T15:24:07;26.80;56.70